Time;durP1;ratioP1;P1;durP2;ratioP2;P2;SDS_P1;SDS_P2;PMS_P1;PMS_P2;Temp;Humidity;BMP_temperature;BMP_pressure;BME280_temperature;BME280_humidity;BME280_pressure;Samples;Min_cycle;Max_cycle;Signal;HPM_P1;HPM_P2
2020/12/13 00:02:14;;;;;;;82.28;33.38;;;8.70;94.50;;;;;;5075419;28;20504;-74
2020/12/13 00:04:39;;;;;;;112.82;39.17;;;8.70;94.50;;;;;;5075408;28;20080;-74
2020/12/13 00:07:06;;;;;;;104.60;39.30;;;8.70;94.50;;;;;;5058993;28;20036;-74
2020/12/13 00:09:32;;;;;;;104.55;40.05;;;8.70;94.50;;;;;;5075197;28;20024;-74
2020/12/13 00:12:02;;;;;;;110.85;41.30;;;8.70;94.50;;;;;;5075733;28;20165;-74
2020/12/13 00:14:27;;;;;;;105.82;40.35;;;8.70;94.50;;;;;;5093136;28;20032;-74
2020/12/13 00:16:53;;;;;;;94.68;40.05;;;8.70;94.50;;;;;;5075446;28;20032;-74
2020/12/13 00:19:19;;;;;;;91.95;38.25;;;8.70;94.50;;;;;;5093397;28;20078;-74
2020/12/13 00:21:49;;;;;;;106.03;37.60;;;8.70;94.50;;;;;;5075469;28;20052;-79
2020/12/13 00:24:15;;;;;;;106.75;40.25;;;8.70;94.50;;;;;;5075346;28;20032;-79
2020/12/13 00:26:41;;;;;;;93.32;36.38;;;8.70;94.50;;;;;;5084181;28;20036;-79
2020/12/13 00:29:06;;;;;;;95.82;39.00;;;8.70;94.50;;;;;;5075237;28;20089;-79
2020/12/13 00:31:32;;;;;;;98.50;37.58;;;8.70;94.50;;;;;;5093098;28;20024;-79
2020/12/13 00:33:58;;;;;;;124.22;41.83;;;8.70;94.50;;;;;;5093095;28;20016;-79
2020/12/13 00:36:23;;;;;;;96.85;37.40;;;8.70;94.50;;;;;;5092545;28;20028;-79
2020/12/13 00:38:50;;;;;;;113.20;39.85;;;8.70;94.50;;;;;;5058177;28;20082;-79
2020/12/13 00:41:16;;;;;;;95.95;37.00;;;8.60;94.50;;;;;;5092292;28;20043;-79
2020/12/13 00:43:42;;;;;;;113.32;40.42;;;8.70;94.50;;;;;;5075143;28;20365;-79
2020/12/13 00:46:07;;;;;;;87.03;36.63;;;8.70;94.50;;;;;;5092987;28;20111;-79
2020/12/13 00:48:33;;;;;;;133.93;40.83;;;8.70;94.50;;;;;;5074990;28;20032;-74
2020/12/13 00:50:59;;;;;;;89.15;36.15;;;8.70;94.50;;;;;;5074649;28;20430;-74
2020/12/13 00:53:24;;;;;;;82.43;35.40;;;8.70;94.50;;;;;;5074960;28;20032;-74
2020/12/13 00:55:50;;;;;;;82.95;34.63;;;8.60;94.50;;;;;;5093075;28;20028;-79
2020/12/13 00:58:15;;;;;;;99.30;38.30;;;8.70;94.50;;;;;;5076085;28;20496;-80
2020/12/13 01:00:41;;;;;;;81.35;35.97;;;8.70;94.50;;;;;;5077524;28;20035;-80
2020/12/13 01:03:07;;;;;;;100.28;38.28;;;8.70;94.50;;;;;;5057854;28;20038;-79
2020/12/13 01:05:32;;;;;;;81.68;35.75;;;8.60;94.50;;;;;;5074900;28;20487;-79
2020/12/13 01:07:58;;;;;;;88.15;37.33;;;8.60;94.50;;;;;;5061377;28;20447;-79
2020/12/13 01:10:24;;;;;;;109.20;38.70;;;8.50;94.40;;;;;;5079023;28;20035;-79
2020/12/13 01:12:49;;;;;;;117.43;40.17;;;8.60;94.50;;;;;;5078677;28;20064;-74
2020/12/13 01:15:16;;;;;;;101.85;41.00;;;8.50;94.50;;;;;;5078290;28;20012;-74
2020/12/13 01:17:46;;;;;;;84.28;37.75;;;8.50;94.50;;;;;;5097017;28;20024;-74
2020/12/13 01:20:13;;;;;;;84.13;36.85;;;8.50;94.60;;;;;;5078670;28;20365;-74
2020/12/13 01:22:39;;;;;;;107.97;42.50;;;8.50;94.60;;;;;;5096724;28;20016;-74
2020/12/13 01:25:06;;;;;;;87.88;39.45;;;8.50;94.60;;;;;;5062136;28;20418;-74
2020/12/13 01:27:31;;;;;;;108.13;42.50;;;8.50;94.60;;;;;;5078494;28;20028;-74
2020/12/13 01:29:57;;;;;;;88.20;39.13;;;8.50;94.60;;;;;;5096456;28;20111;-79
2020/12/13 01:32:23;;;;;;;91.03;41.00;;;8.50;94.60;;;;;;5061924;28;20030;-80
2020/12/13 01:34:48;;;;;;;88.15;38.38;;;8.60;94.60;;;;;;5078681;28;20024;-79
2020/12/13 01:37:14;;;;;;;78.82;39.65;;;8.60;94.50;;;;;;5078469;28;20028;-79
2020/12/13 01:39:39;;;;;;;79.03;38.72;;;8.60;94.50;;;;;;5078470;28;20032;-79
2020/12/13 01:42:05;;;;;;;78.07;37.38;;;8.60;94.50;;;;;;5078264;28;20507;-79
2020/12/13 01:44:35;;;;;;;80.90;38.78;;;8.70;94.50;;;;;;5096538;28;20374;-80
2020/12/13 01:47:02;;;;;;;93.07;39.38;;;8.60;94.50;;;;;;5077954;28;20052;-80
2020/12/13 01:49:35;;;;;;;70.03;35.90;;;8.60;94.50;;;;;;5079136;28;20063;-79
2020/12/13 01:52:49;;;;;;;76.15;36.65;;;8.70;94.50;;;;;;5059044;28;20025;-80
2020/12/13 01:54:57;;;;;;;72.22;34.85;;;8.70;94.50;;;;;;5061859;28;20499;-80
2020/12/13 01:57:24;;;;;;;67.38;35.38;;;8.70;94.50;;;;;;5075966;28;20074;-79
2020/12/13 01:59:52;;;;;;;72.45;35.35;;;8.70;94.50;;;;;;5075851;28;20028;-79
2020/12/13 02:02:23;;;;;;;79.60;39.35;;;8.70;94.50;;;;;;5057918;28;20020;-80
2020/12/13 02:04:53;;;;;;;76.53;36.50;;;8.70;94.50;;;;;;5075854;28;20025;-79
2020/12/13 02:07:20;;;;;;;71.45;35.47;;;8.70;94.50;;;;;;5089952;28;20028;-79
2020/12/13 02:09:46;;;;;;;77.90;37.50;;;8.70;94.50;;;;;;5075655;28;20025;-79
2020/12/13 02:12:12;;;;;;;74.30;37.58;;;8.70;94.50;;;;;;5075724;28;20028;-78
2020/12/13 02:14:37;;;;;;;66.32;35.67;;;8.70;94.40;;;;;;5057618;28;20029;-79
2020/12/13 02:17:03;;;;;;;68.32;34.55;;;8.70;94.40;;;;;;5075788;28;20036;-79
2020/12/13 02:19:30;;;;;;;64.47;34.13;;;8.70;94.40;;;;;;5090127;28;20028;-79
2020/12/13 02:21:59;;;;;;;75.15;36.03;;;8.70;94.40;;;;;;5086997;28;20036;-74
2020/12/13 02:24:25;;;;;;;78.10;37.53;;;8.80;94.40;;;;;;5077531;28;20057;-74
2020/12/13 02:26:50;;;;;;;65.40;35.15;;;8.80;94.40;;;;;;5077231;28;20048;-74
2020/12/13 02:29:16;;;;;;;67.30;35.45;;;8.80;94.40;;;;;;5077260;28;20074;-74
2020/12/13 02:31:43;;;;;;;70.75;35.03;;;8.80;94.40;;;;;;5106798;28;20055;-74
2020/12/13 02:34:08;;;;;;;68.10;34.33;;;8.70;94.40;;;;;;5097643;28;20031;-74
2020/12/13 02:36:34;;;;;;;74.05;35.58;;;8.80;94.40;;;;;;5090290;28;20388;-74
2020/12/13 02:39:02;;;;;;;63.95;34.50;;;8.70;94.40;;;;;;5074836;28;20098;-74
2020/12/13 02:41:28;;;;;;;61.67;32.65;;;8.70;94.40;;;;;;5095055;28;20388;-74
2020/12/13 02:43:54;;;;;;;63.72;33.17;;;8.80;94.50;;;;;;5095314;28;20032;-74
2020/12/13 02:46:19;;;;;;;67.90;35.58;;;8.80;94.40;;;;;;5060136;28;20038;-74
2020/12/13 02:48:45;;;;;;;58.80;32.85;;;8.70;94.40;;;;;;5076669;28;20059;-74
2020/12/13 02:51:10;;;;;;;57.00;30.45;;;8.80;94.40;;;;;;5076865;28;20058;-74
2020/12/13 02:53:36;;;;;;;66.63;35.22;;;8.80;94.40;;;;;;5094767;28;20094;-74
2020/12/13 02:56:02;;;;;;;65.13;34.88;;;8.80;94.40;;;;;;5088895;28;20078;-74
2020/12/13 02:58:27;;;;;;;60.05;33.10;;;8.70;94.40;;;;;;5076583;28;20051;-74
2020/12/13 03:00:56;;;;;;;72.18;37.42;;;8.80;94.40;;;;;;5076481;28;20123;-74
2020/12/13 03:03:24;;;;;;;59.33;33.22;;;8.80;94.40;;;;;;5073398;28;20025;-74
2020/12/13 03:05:50;;;;;;;59.20;32.33;;;8.80;94.40;;;;;;5079145;28;20410;-74
2020/12/13 03:08:15;;;;;;;77.95;37.75;;;8.80;94.40;;;;;;5076626;28;20099;-74
2020/12/13 03:10:41;;;;;;;68.25;34.33;;;8.70;94.40;;;;;;5076387;28;20028;-79
2020/12/13 03:13:06;;;;;;;73.30;35.03;;;8.70;94.40;;;;;;5094761;28;20032;-79
2020/12/13 03:15:32;;;;;;;61.17;33.33;;;8.70;94.70;;;;;;5094775;28;20478;-79
2020/12/13 03:17:58;;;;;;;62.60;33.72;;;8.80;94.50;;;;;;5076616;28;20028;-79
2020/12/13 03:20:23;;;;;;;62.00;33.88;;;8.80;94.50;;;;;;5094706;28;20134;-79
2020/12/13 03:22:49;;;;;;;64.35;35.17;;;8.80;94.50;;;;;;5095142;28;20028;-79
2020/12/13 03:25:14;;;;;;;64.22;34.05;;;8.80;94.50;;;;;;5094886;28;20036;-79
2020/12/13 03:27:40;;;;;;;67.32;35.15;;;8.80;94.40;;;;;;5076587;28;20032;-79
2020/12/13 03:30:06;;;;;;;69.60;35.97;;;8.80;94.50;;;;;;5077523;28;20031;-79
2020/12/13 03:32:35;;;;;;;63.45;31.70;;;8.80;94.50;;;;;;5075686;28;20032;-78
2020/12/13 03:35:03;;;;;;;61.03;31.65;;;8.80;94.40;;;;;;5076078;28;20076;-78
2020/12/13 03:37:28;;;;;;;53.42;30.48;;;8.80;94.40;;;;;;5092689;28;20504;-78
2020/12/13 03:39:54;;;;;;;62.17;31.77;;;8.80;94.40;;;;;;5058735;28;20032;-79
2020/12/13 03:42:19;;;;;;;61.40;31.73;;;8.80;94.40;;;;;;5075407;28;20397;-79
2020/12/13 03:44:45;;;;;;;66.53;32.55;;;8.80;94.40;;;;;;5074916;28;20066;-78
2020/12/13 03:47:10;;;;;;;64.65;31.83;;;8.80;94.40;;;;;;5093122;28;20056;-79
2020/12/13 03:49:36;;;;;;;64.07;32.33;;;8.80;94.40;;;;;;5075433;28;20036;-79
2020/12/13 03:52:02;;;;;;;60.70;32.20;;;8.80;94.40;;;;;;5075664;28;20021;-79
2020/12/13 03:54:27;;;;;;;59.80;29.75;;;8.80;94.40;;;;;;5059127;28;20358;-79
2020/12/13 03:56:53;;;;;;;62.03;31.38;;;8.80;94.40;;;;;;5076073;28;20111;-79
2020/12/13 03:59:19;;;;;;;55.38;29.98;;;8.80;94.40;;;;;;5093792;28;20035;-79
2020/12/13 04:01:44;;;;;;;55.83;29.63;;;8.80;94.40;;;;;;5068375;28;20028;-74
2020/12/13 04:04:10;;;;;;;54.58;29.67;;;8.80;94.40;;;;;;5093678;28;20032;-74
2020/12/13 04:06:36;;;;;;;53.88;28.70;;;8.80;94.40;;;;;;5093489;28;20143;-74
2020/12/13 04:09:02;;;;;;;53.90;28.85;;;8.80;94.40;;;;;;5058298;28;20028;-74
2020/12/13 04:11:28;;;;;;;53.53;29.48;;;8.80;94.40;;;;;;5093549;28;20024;-74
2020/12/13 04:13:53;;;;;;;54.20;29.23;;;8.80;94.40;;;;;;5093474;28;20043;-74
2020/12/13 04:16:19;;;;;;;55.70;30.25;;;8.80;94.40;;;;;;5093110;28;20469;-74
2020/12/13 04:18:44;;;;;;;51.45;30.15;;;8.80;94.40;;;;;;5075035;28;20028;-74
2020/12/13 04:21:10;;;;;;;55.72;31.00;;;8.80;94.40;;;;;;5075459;28;20056;-74
2020/12/13 04:23:35;;;;;;;54.13;29.38;;;8.80;94.40;;;;;;5055090;28;20516;-75
2020/12/13 04:26:01;;;;;;;68.65;32.33;;;8.80;94.40;;;;;;5075486;28;20141;-74
2020/12/13 04:28:27;;;;;;;54.72;30.23;;;8.80;94.40;;;;;;5055764;28;20032;-74
2020/12/13 04:30:52;;;;;;;52.47;30.58;;;8.80;94.40;;;;;;5075483;28;20435;-74
2020/12/13 04:33:18;;;;;;;59.50;31.23;;;8.80;94.40;;;;;;5056923;28;20419;-74
2020/12/13 04:35:43;;;;;;;60.60;31.50;;;8.80;94.40;;;;;;5092786;28;20047;-74
2020/12/13 04:38:09;;;;;;;68.78;32.80;;;8.80;94.40;;;;;;5091092;28;20032;-73
2020/12/13 04:40:35;;;;;;;67.38;34.92;;;8.80;94.50;;;;;;5075037;28;20384;-74
2020/12/13 04:43:01;;;;;;;64.50;33.38;;;8.80;94.40;;;;;;5092318;28;20551;-79
2020/12/13 04:45:27;;;;;;;61.63;33.20;;;8.80;94.50;;;;;;5074443;28;20118;-79
2020/12/13 04:48:03;;;;;;;73.68;36.15;;;8.80;94.40;;;;;;5073971;28;20445;-79
2020/12/13 04:50:31;;;;;;;65.78;34.67;;;8.80;94.40;;;;;;5083544;28;20024;-79
2020/12/13 04:52:58;;;;;;;61.03;33.50;;;8.80;94.40;;;;;;5092883;28;20019;-79
2020/12/13 04:55:24;;;;;;;60.22;35.20;;;8.70;94.40;;;;;;5074325;28;20480;-74
2020/12/13 04:57:49;;;;;;;61.08;35.03;;;8.80;94.40;;;;;;5074957;28;20383;-74
2020/12/13 05:00:18;;;;;;;69.97;38.00;;;8.70;94.30;;;;;;5057993;28;20035;-74
2020/12/13 05:02:44;;;;;;;64.57;37.53;;;8.70;94.30;;;;;;5058580;28;20048;-74
2020/12/13 05:05:14;;;;;;;64.13;35.58;;;8.70;94.30;;;;;;5092685;28;20099;-74
2020/12/13 05:07:40;;;;;;;82.80;40.17;;;8.70;94.30;;;;;;5060726;28;20051;-75
2020/12/13 05:10:05;;;;;;;64.32;36.63;;;8.70;94.30;;;;;;5069102;28;20055;-74
2020/12/13 05:12:31;;;;;;;68.82;37.65;;;8.70;94.30;;;;;;5074636;28;20024;-74
2020/12/13 05:14:56;;;;;;;75.57;39.45;;;8.70;94.20;;;;;;5074786;28;20028;-74
2020/12/13 05:17:24;;;;;;;62.30;36.05;;;8.70;94.20;;;;;;5058046;28;20065;-74
2020/12/13 05:19:51;;;;;;;62.97;36.67;;;8.70;94.20;;;;;;5074622;28;20032;-74
2020/12/13 05:22:21;;;;;;;55.97;34.85;;;8.70;94.20;;;;;;5092878;28;20069;-74
2020/12/13 05:24:47;;;;;;;54.40;34.30;;;8.60;94.10;;;;;;5057567;28;20028;-74
2020/12/13 05:27:13;;;;;;;62.58;34.80;;;8.60;94.10;;;;;;5074717;28;20127;-74
2020/12/13 05:29:43;;;;;;;62.10;34.10;;;8.60;94.10;;;;;;5074629;28;20078;-74
2020/12/13 05:32:11;;;;;;;57.70;33.42;;;8.60;94.10;;;;;;5074696;28;20031;-74
2020/12/13 05:34:43;;;;;;;56.63;33.35;;;8.60;94.30;;;;;;5092659;28;20020;-74
2020/12/13 05:37:14;;;;;;;55.45;31.25;;;8.60;94.00;;;;;;5074485;28;20486;-74
2020/12/13 05:39:48;;;;;;;56.88;32.65;;;8.60;94.00;;;;;;5073777;28;20510;-74
2020/12/13 05:42:28;;;;;;;55.78;31.13;;;8.50;94.00;;;;;;5090486;28;20078;-74
2020/12/13 05:53:05;;;;;;;54.15;30.63;;;8.50;94.30;;;;;;5077450;28;20074;-74
2020/12/13 05:55:31;;;;;;;52.47;30.95;;;8.50;94.00;;;;;;5095570;28;20028;-74
2020/12/13 05:57:57;;;;;;;55.83;32.25;;;8.50;94.00;;;;;;5048510;28;20024;-74
2020/12/13 06:00:23;;;;;;;53.55;30.60;;;8.50;93.90;;;;;;5092521;28;20035;-74
2020/12/13 06:02:49;;;;;;;51.08;30.15;;;8.50;93.90;;;;;;5077638;28;20044;-74
2020/12/13 06:05:16;;;;;;;45.75;28.00;;;8.50;93.90;;;;;;5061058;28;20073;-74
2020/12/13 06:07:51;;;;;;;54.47;30.77;;;8.50;93.90;;;;;;5077645;28;20177;-74
2020/12/13 06:10:25;;;;;;;54.58;28.95;;;8.50;93.90;;;;;;5077882;28;20031;-74
2020/12/13 06:12:58;;;;;;;42.72;25.35;;;8.50;93.90;;;;;;5095745;28;20051;-74
2020/12/13 06:15:27;;;;;;;42.90;25.35;;;8.50;93.90;;;;;;5077254;28;20077;-74
2020/12/13 06:17:52;;;;;;;39.30;24.77;;;8.50;93.90;;;;;;5077193;28;20024;-74
2020/12/13 06:20:18;;;;;;;40.00;24.20;;;8.50;93.90;;;;;;5057807;28;20389;-74
2020/12/13 06:22:45;;;;;;;34.03;22.48;;;8.50;93.90;;;;;;5091195;28;20032;-74
2020/12/13 06:25:11;;;;;;;39.35;23.20;;;8.40;93.80;;;;;;5077349;28;20021;-74
2020/12/13 06:27:37;;;;;;;32.88;20.00;;;8.40;93.80;;;;;;5076992;28;20031;-74
2020/12/13 06:30:10;;;;;;;37.85;21.92;;;8.50;93.80;;;;;;5057496;28;20107;-74
2020/12/13 06:32:43;;;;;;;31.20;20.83;;;8.40;93.80;;;;;;5085624;28;20483;-75
2020/12/13 06:35:09;;;;;;;33.25;20.98;;;8.40;93.80;;;;;;5077355;28;20032;-79
2020/12/13 06:37:37;;;;;;;27.88;18.63;;;8.40;93.80;;;;;;5077948;28;20020;-79
2020/12/13 06:40:13;;;;;;;46.13;21.00;;;8.40;93.70;;;;;;5078065;28;20039;-79
2020/12/13 06:42:41;;;;;;;38.72;20.60;;;8.40;93.70;;;;;;5077932;28;20029;-79
2020/12/13 06:45:09;;;;;;;36.28;20.83;;;8.40;93.60;;;;;;5095018;28;20032;-75
2020/12/13 06:47:39;;;;;;;33.67;19.35;;;8.30;93.50;;;;;;5076743;28;20040;-75
2020/12/13 06:50:07;;;;;;;27.50;17.73;;;8.30;93.60;;;;;;5076710;28;20021;-74
2020/12/13 06:52:34;;;;;;;30.83;18.83;;;8.30;93.70;;;;;;5095033;28;20032;-74
2020/12/13 06:55:01;;;;;;;31.17;18.65;;;8.30;93.60;;;;;;5095000;28;20486;-74
2020/12/13 06:57:29;;;;;;;28.80;16.48;;;8.30;93.60;;;;;;5056729;28;20439;-74
2020/12/13 06:59:56;;;;;;;35.22;18.27;;;8.30;93.60;;;;;;5090594;28;20024;-75
2020/12/13 07:02:54;;;;;;;34.10;16.90;;;8.30;93.60;;;;;;5090266;28;20029;-74
2020/12/13 07:05:20;;;;;;;32.10;16.30;;;8.30;93.70;;;;;;5074033;28;20028;-74
2020/12/13 07:07:51;;;;;;;35.60;16.65;;;8.30;93.60;;;;;;5056360;28;20033;-75
2020/12/13 07:10:17;;;;;;;27.25;16.27;;;8.30;93.70;;;;;;5073030;28;20020;-75
2020/12/13 07:12:51;;;;;;;27.33;16.30;;;8.30;93.70;;;;;;5076366;28;20443;-75
2020/12/13 07:15:29;;;;;;;29.88;15.15;;;8.30;93.70;;;;;;5075550;28;20028;-74
2020/12/13 07:17:57;;;;;;;27.27;15.65;;;8.30;93.60;;;;;;5075772;28;20020;-75
2020/12/13 07:20:23;;;;;;;30.40;15.50;;;8.30;93.60;;;;;;5076264;28;20127;-75
2020/12/13 07:22:55;;;;;;;32.67;15.35;;;8.30;93.60;;;;;;5110065;28;20028;-74
2020/12/13 07:25:21;;;;;;;29.88;14.90;;;8.30;93.60;;;;;;5091406;28;20012;-75
2020/12/13 07:27:48;;;;;;;28.90;15.57;;;8.20;93.50;;;;;;5075984;28;20028;-75
2020/12/13 07:30:13;;;;;;;25.42;14.45;;;8.30;93.50;;;;;;5055583;28;20113;-75
2020/12/13 07:32:39;;;;;;;28.63;13.63;;;8.20;93.50;;;;;;5073747;28;20109;-74
2020/12/13 07:35:11;;;;;;;27.42;13.02;;;8.20;93.50;;;;;;5075821;28;20024;-74
2020/12/13 07:37:36;;;;;;;21.67;13.32;;;8.20;93.50;;;;;;5074297;28;20035;-74
2020/12/13 07:40:13;;;;;;;30.65;13.43;;;8.20;93.50;;;;;;5079404;28;20403;-75
2020/12/13 07:42:39;;;;;;;26.88;12.48;;;8.20;93.50;;;;;;5093998;28;20036;-74
2020/12/13 07:45:05;;;;;;;35.60;13.63;;;8.20;93.50;;;;;;5076145;28;20024;-74
2020/12/13 07:47:31;;;;;;;21.77;11.52;;;8.20;93.40;;;;;;5093864;28;20051;-75
2020/12/13 07:50:05;;;;;;;19.50;11.40;;;8.10;93.40;;;;;;5075513;28;20040;-74
2020/12/13 07:52:31;;;;;;;28.20;12.13;;;8.10;93.40;;;;;;5093897;28;20020;-74
2020/12/13 07:55:07;;;;;;;24.35;11.50;;;8.00;93.40;;;;;;5093666;28;20495;-74
2020/12/13 07:57:35;;;;;;;22.23;10.48;;;8.00;93.40;;;;;;5075761;28;20024;-75
2020/12/13 08:00:09;;;;;;;19.60;10.65;;;8.00;93.40;;;;;;5055298;28;20501;-74
2020/12/13 08:02:34;;;;;;;22.42;10.75;;;8.00;93.40;;;;;;5105963;28;20051;-75
2020/12/13 08:05:00;;;;;;;22.80;10.90;;;8.00;93.40;;;;;;5055562;28;20028;-75
2020/12/13 08:07:26;;;;;;;24.77;11.43;;;7.90;93.30;;;;;;5084406;28;20032;-74
2020/12/13 08:09:59;;;;;;;21.27;11.13;;;8.00;93.30;;;;;;5093075;28;20060;-74
2020/12/13 08:12:34;;;;;;;25.85;10.82;;;8.00;93.30;;;;;;5074417;28;20052;-75
2020/12/13 08:15:00;;;;;;;24.20;10.43;;;8.00;93.30;;;;;;5074851;28;20020;-74
2020/12/13 08:17:26;;;;;;;21.63;10.82;;;8.00;93.30;;;;;;5088138;28;20024;-74
2020/12/13 08:20:00;;;;;;;16.63;9.98;;;7.90;93.50;;;;;;5093715;28;20024;-74
2020/12/13 08:22:28;;;;;;;19.85;10.93;;;8.00;93.30;;;;;;5093359;28;20031;-74
2020/12/13 08:24:54;;;;;;;20.08;10.35;;;8.00;93.20;;;;;;5067830;28;20070;-74
2020/12/13 08:27:20;;;;;;;20.35;9.60;;;8.00;93.20;;;;;;5075279;28;20380;-75
2020/12/13 08:29:46;;;;;;;19.83;10.55;;;8.00;93.20;;;;;;5080241;28;20034;-75
2020/12/13 08:32:13;;;;;;;18.65;9.27;;;8.00;93.20;;;;;;5069853;28;20485;-75
2020/12/13 08:34:39;;;;;;;19.05;9.63;;;8.00;93.10;;;;;;5093084;28;20031;-75
2020/12/13 08:37:05;;;;;;;21.25;9.77;;;7.90;93.10;;;;;;5075330;28;20110;-75
2020/12/13 08:39:36;;;;;;;18.38;9.13;;;8.00;93.10;;;;;;5093454;28;20028;-79
2020/12/13 08:42:04;;;;;;;19.27;9.55;;;8.00;93.10;;;;;;5093307;28;20032;-79
2020/12/13 08:44:50;;;;;;;17.92;8.73;;;8.00;93.10;;;;;;5093410;28;20072;-78
2020/12/13 08:47:19;;;;;;;22.52;8.60;;;8.00;93.10;;;;;;5075211;28;20405;-78
2020/12/13 08:49:48;;;;;;;23.17;8.83;;;8.10;93.10;;;;;;5093171;28;20035;-79
2020/12/13 08:52:23;;;;;;;18.95;8.57;;;8.10;93.00;;;;;;5075240;28;20020;-78
2020/12/13 08:54:49;;;;;;;22.23;8.75;;;8.10;93.00;;;;;;5075098;28;20388;-79
2020/12/13 08:57:36;;;;;;;20.05;8.65;;;8.10;92.90;;;;;;5075197;28;20024;-79
2020/12/13 09:00:12;;;;;;;19.23;9.07;;;8.10;92.90;;;;;;5092937;28;20032;-74
2020/12/13 09:02:39;;;;;;;20.83;8.40;;;8.10;92.90;;;;;;5092312;28;20020;-74
2020/12/13 09:05:08;;;;;;;17.88;8.32;;;8.10;92.90;;;;;;5091816;28;20024;-74
2020/12/13 09:07:34;;;;;;;23.00;7.72;;;8.10;92.80;;;;;;5092886;28;20031;-73
2020/12/13 09:10:21;;;;;;;19.25;8.27;;;8.20;92.80;;;;;;5086731;28;20082;-74
2020/12/13 09:12:47;;;;;;;21.67;8.10;;;8.20;92.80;;;;;;5072940;28;20029;-74
2020/12/13 09:15:17;;;;;;;18.85;8.13;;;8.20;92.70;;;;;;5086105;28;20025;-75
2020/12/13 09:17:57;;;;;;;22.52;8.38;;;8.20;92.80;;;;;;5098134;28;20020;-74
2020/12/13 09:20:34;;;;;;;18.45;8.25;;;8.20;92.70;;;;;;5092620;28;20024;-74
2020/12/13 09:23:05;;;;;;;15.35;7.45;;;8.20;92.70;;;;;;5096030;28;20027;-74
2020/12/13 09:25:41;;;;;;;14.68;7.47;;;8.20;92.60;;;;;;5109445;28;20035;-74
2020/12/13 09:28:07;;;;;;;19.13;7.53;;;8.30;92.60;;;;;;5076043;28;20028;-74
2020/12/13 09:30:33;;;;;;;21.80;8.15;;;8.30;92.60;;;;;;5084412;28;20031;-74
2020/12/13 09:32:59;;;;;;;18.00;7.45;;;8.30;92.50;;;;;;5084417;28;20028;-74
2020/12/13 09:35:30;;;;;;;23.30;7.13;;;8.30;92.50;;;;;;5077832;28;20058;-74
2020/12/13 09:37:56;;;;;;;14.75;6.93;;;8.30;92.50;;;;;;5077924;28;20020;-74
2020/12/13 09:40:22;;;;;;;15.60;6.68;;;8.40;92.40;;;;;;5077566;28;20043;-73
2020/12/13 09:42:47;;;;;;;16.35;6.10;;;8.30;92.40;;;;;;5078004;28;20044;-74
2020/12/13 09:45:13;;;;;;;17.35;6.28;;;8.30;92.40;;;;;;5100489;28;20475;-74
2020/12/13 09:47:38;;;;;;;17.17;6.38;;;8.40;92.40;;;;;;5096892;28;20066;-74
2020/12/13 09:50:04;;;;;;;12.13;6.05;;;8.40;92.30;;;;;;5077541;28;20085;-74
2020/12/13 09:52:31;;;;;;;16.08;6.28;;;8.40;92.30;;;;;;5082390;28;20020;-83
2020/12/13 09:54:57;;;;;;;16.63;6.10;;;8.50;92.30;;;;;;5091689;28;20503;-83
2020/12/13 09:57:22;;;;;;;13.73;5.60;;;8.50;92.20;;;;;;5095974;28;20016;-83
2020/12/13 09:59:48;;;;;;;23.17;6.40;;;8.50;92.20;;;;;;5077937;28;20480;-83
2020/12/13 10:02:13;;;;;;;11.75;6.00;;;8.50;92.20;;;;;;5077690;28;20040;-83
2020/12/13 10:04:39;;;;;;;16.13;5.88;;;8.50;92.10;;;;;;5077183;28;20020;-83
2020/12/13 10:09:49;;;;;;;17.02;5.70;;;8.60;91.90;;;;;;5094830;28;20065;-83
2020/12/13 10:12:15;;;;;;;13.57;5.72;;;8.60;91.90;;;;;;5076739;28;20024;-83
2020/12/13 10:14:40;;;;;;;14.95;6.03;;;8.60;91.90;;;;;;5095580;28;20036;-83
2020/12/13 10:17:07;;;;;;;14.57;5.85;;;8.70;91.90;;;;;;5095025;28;20050;-83
2020/12/13 10:19:33;;;;;;;14.82;5.63;;;8.70;91.80;;;;;;5081753;28;20099;-83
2020/12/13 10:21:58;;;;;;;13.13;5.30;;;8.70;91.80;;;;;;5121234;27;20178;-83
2020/12/13 10:24:24;;;;;;;13.15;4.68;;;8.80;91.70;;;;;;5083814;28;20034;-83
2020/12/13 10:26:49;;;;;;;13.20;5.03;;;8.80;91.70;;;;;;5099858;28;20451;-83
2020/12/13 10:29:15;;;;;;;12.55;5.28;;;8.90;91.60;;;;;;5085685;28;20032;-83
2020/12/13 10:31:41;;;;;;;16.55;5.50;;;9.00;91.60;;;;;;5100220;28;20039;-83
2020/12/13 10:34:09;;;;;;;18.50;5.40;;;9.00;91.40;;;;;;5095392;28;20016;-83
2020/12/13 10:36:37;;;;;;;9.52;4.30;;;9.20;91.30;;;;;;5095410;28;20034;-83
2020/12/13 10:39:04;;;;;;;10.80;4.47;;;9.20;91.10;;;;;;5076150;28;20099;-82
2020/12/13 10:41:31;;;;;;;11.48;4.68;;;9.20;90.90;;;;;;5077007;28;20500;-83
2020/12/13 10:43:57;;;;;;;11.07;4.15;;;9.20;90.80;;;;;;5095347;28;20357;-83
2020/12/13 10:46:23;;;;;;;10.52;3.67;;;9.20;90.80;;;;;;5095492;28;20024;-83
2020/12/13 10:48:49;;;;;;;12.52;3.90;;;9.20;90.70;;;;;;5056699;28;20070;-83
2020/12/13 10:51:15;;;;;;;9.68;4.20;;;9.20;90.50;;;;;;5094302;28;20028;-83
2020/12/13 10:53:42;;;;;;;12.00;3.95;;;9.20;90.40;;;;;;5094826;28;20016;-83
2020/12/13 10:56:08;;;;;;;8.25;3.72;;;9.20;90.10;;;;;;5095039;28;20023;-83
2020/12/13 10:58:33;;;;;;;11.02;4.15;;;9.20;90.00;;;;;;5104733;28;20388;-86
2020/12/13 11:01:02;;;;;;;11.07;4.03;;;9.20;90.00;;;;;;5081632;28;20026;-84
2020/12/13 11:03:28;;;;;;;12.32;3.60;;;9.20;90.00;;;;;;5077799;28;20085;-84
2020/12/13 11:05:54;;;;;;;10.23;3.90;;;9.30;89.60;;;;;;5077157;28;20107;-85
2020/12/13 11:08:22;;;;;;;11.68;3.95;;;9.30;90.00;;;;;;5097738;28;20575;-86
2020/12/13 11:10:48;;;;;;;10.88;3.72;;;9.30;90.00;;;;;;5112196;28;20118;-88
2020/12/13 11:13:14;;;;;;;7.82;3.67;;;9.30;90.00;;;;;;5127452;27;20024;-86
2020/12/13 11:15:42;;;;;;;17.17;4.65;;;9.40;89.70;;;;;;5095774;28;20059;-86
2020/12/13 11:18:08;;;;;;;9.30;4.13;;;9.40;89.50;;;;;;5095547;28;20480;-86
2020/12/13 11:20:33;;;;;;;11.85;3.90;;;9.40;89.40;;;;;;5071398;28;20024;-87
2020/12/13 11:22:59;;;;;;;14.35;3.83;;;9.40;89.30;;;;;;5057813;28;20025;-86
2020/12/13 11:25:25;;;;;;;10.57;3.83;;;9.50;89.10;;;;;;5057648;28;20028;-86
2020/12/13 11:27:50;;;;;;;7.85;3.30;;;9.50;88.90;;;;;;5057639;28;20024;-86
2020/12/13 11:30:16;;;;;;;8.85;3.65;;;9.50;88.90;;;;;;5041022;28;20538;-86
2020/12/13 11:32:44;;;;;;;10.95;3.70;;;9.60;88.70;;;;;;5075433;28;20239;-87
2020/12/13 11:35:10;;;;;;;8.15;3.22;;;9.60;88.70;;;;;;5065355;28;20020;-86
2020/12/13 11:37:37;;;;;;;10.63;3.55;;;9.60;88.20;;;;;;5096199;28;20117;-86
2020/12/13 11:40:03;;;;;;;8.48;2.97;;;9.60;88.10;;;;;;5077882;28;20107;-86
2020/12/13 11:42:29;;;;;;;6.05;2.63;;;10.00;86.70;;;;;;5095552;28;20095;-86
2020/12/13 11:44:55;;;;;;;6.82;2.90;;;10.80;82.30;;;;;;5060590;28;20039;-86
2020/12/13 11:47:20;;;;;;;9.45;3.28;;;11.40;78.90;;;;;;5092951;28;20031;-85
2020/12/13 11:49:46;;;;;;;7.97;2.20;;;11.90;76.80;;;;;;5067539;28;20392;-85
2020/12/13 11:52:12;;;;;;;7.07;2.42;;;12.10;75.60;;;;;;5081472;28;20027;-85
2020/12/13 11:54:37;;;;;;;10.05;2.65;;;12.10;75.70;;;;;;5131364;27;20156;-85
2020/12/13 11:57:03;;;;;;;9.63;2.78;;;12.20;74.80;;;;;;5094924;28;20027;-85
2020/12/13 11:59:29;;;;;;;8.68;2.58;;;12.40;74.50;;;;;;5095619;28;20016;-85
2020/12/13 12:01:56;;;;;;;6.85;2.05;;;12.50;74.30;;;;;;5094550;28;20039;-85
2020/12/13 12:04:23;;;;;;;7.65;2.38;;;12.20;75.80;;;;;;5094400;28;20020;-83
2020/12/13 12:06:49;;;;;;;7.75;3.10;;;11.60;78.10;;;;;;5094254;28;20063;-85
2020/12/13 12:09:16;;;;;;;9.77;2.83;;;11.20;80.00;;;;;;5094225;28;20113;-86
2020/12/13 12:11:42;;;;;;;16.25;6.82;;;10.80;81.20;;;;;;5094739;28;20035;-86
2020/12/13 12:14:12;;;;;;;21.10;6.30;;;10.40;82.50;;;;;;5094253;28;20024;-82
2020/12/13 12:16:39;;;;;;;9.48;3.67;;;10.20;83.30;;;;;;5080518;28;20461;-82
2020/12/13 12:19:05;;;;;;;10.05;3.22;;;10.00;84.00;;;;;;5055546;28;20439;-82
2020/12/13 12:21:34;;;;;;;10.43;3.00;;;9.90;84.80;;;;;;5088236;28;20048;-82
2020/12/13 12:24:01;;;;;;;11.55;2.88;;;9.80;85.20;;;;;;5094267;28;20027;-83
2020/12/13 12:26:33;;;;;;;10.05;2.92;;;9.70;85.40;;;;;;5093931;28;20024;-82
2020/12/13 12:29:05;;;;;;;16.35;3.05;;;9.60;85.30;;;;;;5075292;28;20031;-82
2020/12/13 12:31:31;;;;;;;8.30;2.33;;;9.60;85.60;;;;;;5074882;28;20115;-81
2020/12/13 12:33:56;;;;;;;7.22;2.28;;;9.50;85.70;;;;;;5075044;28;20116;-82
2020/12/13 12:36:25;;;;;;;10.82;2.45;;;9.50;86.10;;;;;;5092986;28;20024;-82
2020/12/13 12:38:51;;;;;;;6.00;2.08;;;9.40;86.30;;;;;;5075558;28;20032;-82
2020/12/13 12:41:19;;;;;;;9.73;2.42;;;9.40;87.20;;;;;;5093506;28;20032;-82
2020/12/13 12:43:45;;;;;;;7.47;2.28;;;9.40;86.60;;;;;;5075437;28;20476;-82
2020/12/13 12:46:11;;;;;;;11.15;2.35;;;9.40;86.60;;;;;;5075856;28;20468;-82
2020/12/13 12:48:38;;;;;;;9.07;2.35;;;9.40;85.90;;;;;;5075331;28;20054;-82
2020/12/13 12:51:05;;;;;;;11.68;2.33;;;9.40;86.00;;;;;;5093604;28;20036;-82
2020/12/13 12:53:31;;;;;;;10.45;2.80;;;9.40;86.20;;;;;;5093532;28;20106;-83